Weather observations for the past three days for
Eureka Airport ASOS
Metric (Imperial)
Date Time (pdt) Wind (kph) Vis. (km) Weather Sky Cond. Temperature (ºC) Relative Humidity Wind Chill (°C) Heat Index (°C) Pressure Precipitation (cm)
Air Dwpt 6 hour altimeter (cm) sea level (mb) 1 hr 3 hr 6 hr
Max. Min.
31 04:53 Calm 0.00 NULL NULL 8.3 1.1 12.2 7.8 61% 76.48 1012.1
31 03:53 S 7 0.00 NULL NULL 10 0.6 52% 9 76.45 1011.6
31 02:53 S 7 0.00 NULL NULL 11.1 -0.6 45% 76.45 1011.4
31 01:53 S 11 0.00 NULL NULL 10 0.6 52% 9 76.45 1011.6
31 00:53 S 7 0.00 NULL NULL 10 0.6 52% 9 76.48 1012.3
30 23:53 S 9 0.00 NULL NULL 11.1 1.1 50% 76.5 1012.8
30 22:53 SE 11 0.00 NULL NULL 10.6 2.8 27.8 10.6 59% 76.5 1013.1
30 21:53 Calm 0.00 NULL NULL 15 1.1 39% 76.48 1012.4
30 20:53 NE 9 0.00 NULL NULL 15 1.7 41% 76.43 1011.9
30 19:53 NE 7 0.00 NULL NULL 17.8 1.1 33% 76.38 1011.4
30 18:53 N 15 0.00 NULL NULL 23.3 -1.1 20% 76.35 1010.6
30 17:53 Calm 0.00 NULL NULL 26.7 -6.1 11% 26 76.33 1009.9
30 16:53 Vrbl 7 0.00 NULL NULL 27.8 -7.2 27.8 21.7 9% 26 76.35 1009.9
30 15:53 SE 9 0.00 NULL NULL 27.2 -7.2 10% 26 76.38 1010.2
30 14:53 W 11 G 26 0.00 NULL NULL 26.7 -6.7 11% 26 76.43 1010.9
30 13:53 Calm 0.00 NULL NULL 26.1 -5 12% 25 76.48 1011.9
30 12:53 Vrbl 7 0.00 NULL NULL 25 -6.7 12% 25 76.53 1011.8
30 11:53 W 7 0.00 NULL NULL 23.3 -5.6 14% 76.56 1013.0
30 10:53 Vrbl 7 0.00 NULL NULL 22.2 -2.2 22.2 8.9 19% 76.58 1013.3
30 09:53 SW 7 0.00 NULL NULL 20.6 -1.1 23% 76.61 1013.5
30 08:53 Calm 0.00 NULL NULL 18.9 1.1 30% 76.61 1013.5
30 07:53 S 6 0.00 NULL NULL 15.6 4.4 48% 76.58 1013.7
30 06:53 S 7 0.00 NULL NULL 11.1 3.9 61% 76.56 1013.5
30 05:53 S 11 0.00 NULL NULL 10.6 5 69% 76.53 1012.5
30 04:53 Calm 0.00 NULL NULL 11.1 5.6 16.1 10.6 69% 76.5 1012.5
30 03:53 SE 7 0.00 NULL NULL 11.1 4.4 64% 76.48 1012.1
30 02:53 S 11 0.00 NULL NULL 13.3 3.3 51% 76.45 1011.5
30 01:53 S 11 0.00 NULL NULL 12.2 6.1 67% 76.43 1011.9
30 00:53 S 11 0.00 NULL NULL 15.6 5.6 52% 76.48 1011.7
29 23:53 S 11 0.00 NULL NULL 14.4 7.8 65% 76.45 1011.6
29 22:53 SW 7 0.00 NULL NULL 16.1 8.3 27.2 15.6 60% 76.43 1011.8
29 21:53 SW 6 0.00 NULL NULL 17.2 8.3 56% 76.45 1012.1
29 20:53 SE 6 0.00 NULL NULL 18.9 6.7 45% 76.4 1011.6
29 19:53 NW 13 0.00 NULL NULL 21.1 3.9 32% 76.33 1010.3
29 18:53 W 15 0.00 NULL NULL 24.4 2.2 23% 25 76.25 1008.8
29 17:53 W 22 G 41 0.00 NULL NULL 26.7 2.2 20% 26 76.25 1008.2
29 16:53 SW 15 0.00 NULL NULL 25.6 4.4 26.7 19.4 26% 25 76.28 1008.9
29 14:53 Vrbl 11 0.00 NULL NULL 25 8.9 36% 26 76.38 1010.5
29 13:53 SE 15 0.00 NULL NULL 22.8 10.6 46% 76.45 1012.0
29 12:53 Vrbl 7 G 41 0.00 NULL NULL 22.8 11.1 48% 76.53 1012.7
29 11:53 SE 9 0.00 NULL NULL 21.7 10.6 49% 76.56 1013.5
29 10:53 Calm 0.00 NULL NULL 19.4 10 19.4 12.8 55% 76.63 1014.9 0.15
29 08:53 S 6 0.00 NULL NULL 15.6 13.3 86% 76.66 1015.9
29 07:53 Calm 0.00 NULL NULL 13.3 12.2 93% 76.68 1016.4 0.03 0.15
29 06:53 Calm 0.00 NULL NULL 12.8 12.2 96% 76.66 1016.4
29 05:53 Calm 0.00 NULL NULL 12.8 12.2 96% 76.66 1015.8 0.13
29 04:53 Calm 0.00 NULL NULL 12.8 12.2 13.3 12.8 96% 76.66 1015.1 0.1 0.1
29 03:53 Calm 0.00 NULL NULL 12.8 12.2 96% 76.63 1014.6
29 02:53 S 6 0.00 NULL NULL 12.8 12.2 96% 76.68 1014.9
29 01:53 Calm 0.00 NULL NULL 12.8 12.2 96% 76.66 1014.9
29 00:53 Calm 0.00 NULL NULL 13.3 12.8 97% 76.71 1016.2
28 23:53 S 6 0.00 NULL NULL 13.3 12.8 97% 76.71 1014.8
28 22:53 Calm 0.00 NULL NULL 13.3 12.8 22.2 13.3 97% 76.73 1015.0 1.4
28 21:53 Calm 0.00 NULL NULL 13.9 12.8 93% 76.78 1016.0
28 20:53 N 7 0.00 NULL NULL 13.9 12.8 93% 76.78 1016.9 0.05
28 19:53 NW 6 0.00 NULL NULL 15 14.4 96% 76.73 1016.5 1.35
28 18:53 E 6 0.00 NULL NULL 15 13.9 93% 76.73 1016.5 1.32
28 17:53 W 33 G 56 0.00 Breezy NULL 16.7 13.9 84% 76.81 1017.4 0.03
28 16:53 E 7 0.00 NULL NULL 21.1 13.9 27.2 17.2 64% 76.58 1013.6 0.08
28 15:53 Calm 0.00 NULL NULL 22.8 11.1 48% 76.61 1013.1
28 14:53 E 19 0.00 NULL NULL 23.3 13.9 56% 76.61 1012.8
28 13:53 W 17 0.00 NULL NULL 22.8 11.1 48% 76.68 1014.0 0.05 0.08
28 12:53 W 33 G 78 0.00 Breezy NULL 17.8 13.9 78% 76.73 1015.5 0.03
28 11:53 N 15 0.00 NULL NULL 26.7 7.2 29% 26 76.61 1012.1
28 10:53 Calm 0.00 NULL NULL 26.1 6.7 26.7 15.6 29% 26 76.66 1012.7
28 09:53 Vrbl 6 0.00 NULL NULL 23.9 6.7 33% 25 76.71 1013.4
28 08:53 E 6 0.00 NULL NULL 20.6 8.3 45% 76.71 1013.9
28 07:53 W 6 0.00 NULL NULL 17.8 8.3 54% 76.73 1014.2
28 06:53 SE 7 0.00 NULL NULL 16.7 8.9 60% 76.71 1014.0
28 05:53 S 7 0.00 NULL NULL 16.1 8.3 60% 76.68 1013.3
Date Time (pdt) Wind (kph) Vis. (km) Weather Sky Cond. Air Dwpt Max. Min. Relative Humidity Wind Chill (°C) Heat Index (°C) altimeter (cm) sea level (mb) 1 hr 3 hr 6 hr
6 hour
Temperature (ºC) Pressure Precipitation (cm)